createdAt,value
2022-08-06T00:00:27.007Z,7.55
2022-08-06T00:02:59.288Z,7.70
2022-08-06T00:05:35.277Z,8.55
2022-08-06T00:08:07.432Z,8.18
2022-08-06T00:10:40.984Z,7.92
2022-08-06T00:13:15.942Z,8.20
2022-08-06T00:16:09.661Z,8.73
2022-08-06T00:18:24.073Z,8.25
2022-08-06T00:20:57.897Z,9.08
2022-08-06T00:23:35.042Z,9.13
2022-08-06T00:26:07.301Z,8.45
2022-08-06T00:28:41.707Z,8.03
2022-08-06T00:31:14.494Z,8.35
2022-08-06T00:33:57.407Z,7.40
2022-08-06T00:36:25.088Z,7.95
2022-08-06T00:38:56.741Z,8.15
2022-08-06T00:41:41.835Z,7.33
2022-08-06T00:44:06.236Z,10.35
2022-08-06T00:46:40.393Z,7.60
2022-08-06T00:49:13.589Z,7.43
2022-08-06T00:51:51.107Z,7.87
2022-08-06T00:54:27.455Z,7.90
2022-08-06T00:56:57.731Z,7.80
2022-08-06T00:59:35.324Z,7.30
2022-08-06T01:02:10.039Z,8.38
2022-08-06T01:04:41.245Z,7.62
2022-08-06T01:07:14.562Z,9.40
2022-08-06T01:12:32.019Z,7.67
2022-08-06T01:15:02.344Z,8.50
2022-08-06T01:17:50.397Z,8.05
2022-08-06T01:21:58.578Z,8.60
2022-08-06T01:24:25.898Z,8.13
2022-08-06T01:27:44.685Z,8.68
2022-08-06T01:30:27.230Z,8.48
2022-08-06T01:33:10.572Z,8.43
2022-08-06T01:35:54.894Z,7.45
2022-08-06T01:38:57.196Z,8.18
2022-08-06T01:41:58.355Z,8.08
2022-08-06T01:44:18.367Z,7.60
2022-08-06T01:46:56.781Z,7.90
2022-08-06T01:50:00.251Z,7.75
2022-08-06T01:52:14.842Z,8.33
2022-08-06T01:54:46.622Z,7.33
2022-08-06T01:57:32.921Z,8.33
2022-08-06T01:59:59.164Z,7.62
2022-08-06T02:02:33.005Z,8.10
2022-08-06T02:05:09.226Z,8.25
2022-08-06T02:08:39.113Z,8.03
2022-08-06T02:10:23.995Z,7.83
2022-08-06T02:13:02.738Z,7.87
2022-08-06T02:15:56.495Z,7.53
2022-08-06T02:18:09.129Z,8.60
2022-08-06T02:20:48.390Z,7.45
2022-08-06T02:23:25.593Z,7.50
2022-08-06T02:26:00.925Z,7.97
2022-08-06T02:28:36.746Z,8.43
2022-08-06T02:31:11.271Z,8.90
2022-08-06T02:34:02.386Z,8.38
2022-08-06T02:36:27.322Z,7.60
2022-08-06T02:39:04.868Z,7.20
2022-08-06T02:42:04.475Z,7.50
2022-08-06T02:45:12.976Z,7.58
2022-08-06T02:48:05.312Z,7.92
2022-08-06T02:50:44.080Z,7.75
2022-08-06T02:53:44.822Z,8.35
2022-08-06T02:56:13.628Z,9.28
2022-08-06T02:58:57.025Z,11.28
2022-08-06T03:01:43.036Z,9.33
2022-08-06T03:04:09.681Z,8.35
2022-08-06T03:06:45.059Z,7.78
2022-08-06T03:09:18.699Z,8.15
2022-08-06T03:11:52.944Z,8.40
2022-08-06T03:14:38.715Z,7.70
2022-08-06T03:17:03.662Z,7.37
2022-08-06T03:19:56.978Z,7.95
2022-08-06T03:22:18.556Z,8.33
2022-08-06T03:24:48.688Z,8.43
2022-08-06T03:27:23.476Z,8.30
2022-08-06T03:29:58.525Z,7.63
2022-08-06T03:32:52.499Z,9.15
2022-08-06T03:35:08.199Z,8.63
2022-08-06T03:37:45.587Z,8.38
2022-08-06T03:40:19.453Z,9.25
2022-08-06T03:42:53.284Z,9.38
2022-08-06T03:45:45.536Z,10.00
2022-08-06T03:48:07.735Z,14.33
2022-08-06T03:50:45.865Z,11.83
2022-08-06T03:53:27.316Z,9.33
2022-08-06T03:56:02.105Z,9.68
2022-08-06T03:58:36.040Z,8.35
2022-08-06T04:01:16.919Z,8.55
2022-08-06T04:03:51.664Z,8.43
2022-08-06T04:06:27.501Z,8.50
2022-08-06T04:09:02.533Z,8.18
2022-08-06T04:11:36.109Z,8.00
2022-08-06T04:14:11.895Z,7.60
2022-08-06T04:16:45.060Z,8.08
2022-08-06T04:19:20.525Z,8.53
2022-08-06T04:23:06.302Z,9.20
2022-08-06T04:24:30.585Z,8.30
2022-08-06T04:27:09.269Z,8.23
2022-08-06T04:29:51.063Z,8.98
2022-08-06T04:32:20.054Z,8.65
2022-08-06T04:36:07.526Z,7.67
2022-08-06T04:37:30.550Z,8.18
2022-08-06T04:40:05.187Z,8.05
2022-08-06T04:42:39.933Z,8.63
2022-08-06T04:46:16.111Z,8.78
2022-08-06T04:47:49.713Z,8.05
2022-08-06T04:50:23.168Z,7.80
2022-08-06T04:53:07.698Z,8.25
2022-08-06T04:55:43.600Z,7.47
2022-08-06T04:58:20.836Z,8.28
2022-08-06T05:00:59.997Z,8.30
2022-08-06T05:04:06.312Z,7.53
2022-08-06T05:06:12.874Z,7.90
2022-08-06T05:08:52.205Z,8.33
2022-08-06T05:11:30.367Z,8.53
2022-08-06T05:14:08.156Z,7.83
2022-08-06T05:16:52.529Z,7.47
2022-08-06T05:19:39.147Z,7.67
2022-08-06T05:22:19.791Z,7.62
2022-08-06T05:25:00.825Z,7.65
2022-08-06T05:27:24.131Z,8.13
2022-08-06T05:29:57.850Z,8.15
2022-08-06T05:32:32.411Z,8.60
2022-08-06T05:35:07.456Z,7.72
2022-08-06T05:38:01.241Z,7.92
2022-08-06T05:40:15.358Z,8.70
2022-08-06T05:42:57.710Z,8.23
2022-08-06T05:45:26.456Z,7.78
2022-08-06T05:48:01.422Z,7.72
2022-08-06T05:50:39.371Z,8.30
2022-08-06T05:53:21.562Z,7.70
2022-08-06T05:55:59.458Z,6.72
2022-08-06T05:58:40.124Z,7.05
2022-08-06T06:01:14.750Z,7.17
2022-08-06T06:06:22.069Z,6.30
2022-08-06T06:08:58.393Z,6.30
2022-08-06T06:11:55.265Z,7.28
2022-08-06T06:14:07.850Z,7.12
2022-08-06T06:16:52.805Z,6.40
2022-08-06T06:20:00.859Z,6.27
2022-08-06T06:22:46.798Z,6.80
2022-08-06T06:25:33.886Z,7.00
2022-08-06T06:28:29.243Z,6.83
2022-08-06T06:32:04.083Z,6.95
2022-08-06T06:34:25.705Z,6.80
2022-08-06T06:37:21.916Z,6.95
2022-08-06T06:40:14.345Z,6.10
2022-08-06T06:42:54.604Z,6.25
2022-08-06T06:46:05.937Z,6.50
2022-08-06T06:48:58.746Z,7.58
2022-08-06T06:51:57.358Z,6.30
2022-08-06T06:54:35.627Z,6.58
2022-08-06T06:57:17.763Z,6.75
2022-08-06T07:00:04.582Z,6.15
2022-08-06T07:02:31.662Z,6.83
2022-08-06T07:05:07.677Z,6.25
2022-08-06T07:07:49.720Z,6.03
2022-08-06T07:10:18.959Z,6.10
2022-08-06T07:15:26.215Z,5.65
2022-08-06T07:18:24.224Z,5.72
2022-08-06T07:20:35.996Z,6.62
2022-08-06T07:24:06.087Z,5.37
2022-08-06T07:25:54.382Z,5.78
2022-08-06T07:28:29.133Z,5.25
2022-08-06T07:31:09.339Z,5.60
2022-08-06T07:34:01.174Z,5.17
2022-08-06T07:36:20.863Z,5.58
2022-08-06T07:38:54.809Z,5.70
2022-08-06T07:41:31.806Z,5.85
2022-08-06T07:44:05.873Z,6.03
2022-08-06T07:46:47.778Z,5.20
2022-08-06T07:49:31.700Z,5.58
2022-08-06T07:52:05.574Z,5.00
2022-08-06T07:54:40.554Z,5.15
2022-08-06T07:57:19.851Z,6.17
2022-08-06T07:59:55.285Z,7.30
2022-08-06T08:02:29.998Z,7.70
2022-08-06T08:05:20.019Z,8.28
2022-08-06T08:07:57.332Z,7.95
2022-08-06T08:10:29.847Z,7.47
2022-08-06T08:13:03.783Z,7.92
2022-08-06T08:15:43.219Z,7.75
2022-08-06T08:18:11.601Z,7.20
2022-08-06T08:20:52.956Z,7.17
2022-08-06T08:23:25.369Z,6.80
2022-08-06T08:26:00.174Z,7.37
2022-08-06T08:28:34.165Z,6.35
2022-08-06T08:31:15.817Z,6.42
2022-08-06T08:33:42.584Z,5.47
2022-08-06T08:36:17.760Z,5.50
2022-08-06T08:38:52.337Z,5.03
2022-08-06T08:41:48.244Z,5.28
2022-08-06T08:44:09.301Z,4.90
2022-08-06T08:46:57.431Z,4.87
2022-08-06T08:49:27.047Z,5.35
2022-08-06T08:52:02.229Z,4.92
2022-08-06T08:54:38.100Z,5.00
2022-08-06T08:58:36.964Z,4.83
2022-08-06T08:59:59.828Z,4.42
2022-08-06T09:02:24.337Z,5.03
2022-08-06T09:04:58.773Z,4.78
2022-08-06T09:07:35.714Z,4.67
2022-08-06T09:10:16.411Z,4.78
2022-08-06T09:12:49.408Z,5.03
2022-08-06T09:15:22.754Z,5.30
2022-08-06T09:18:26.407Z,5.00
2022-08-06T09:20:32.223Z,4.80
2022-08-06T09:23:07.601Z,4.62
2022-08-06T09:25:51.222Z,4.83
2022-08-06T09:28:39.660Z,4.72
2022-08-06T09:31:31.168Z,4.03
2022-08-06T09:34:30.840Z,3.67
2022-08-06T09:36:49.133Z,4.35
2022-08-06T09:40:00.086Z,4.10
2022-08-06T09:42:26.187Z,4.20
2022-08-06T09:45:16.015Z,4.60
2022-08-06T09:47:59.065Z,4.65
2022-08-06T09:50:47.627Z,3.85
2022-08-06T09:53:23.851Z,3.80
2022-08-06T09:55:58.963Z,4.05
2022-08-06T09:58:37.639Z,3.70
2022-08-06T10:01:23.476Z,3.55
2022-08-06T10:04:06.486Z,4.35
2022-08-06T10:06:34.466Z,3.65
2022-08-06T10:09:20.869Z,3.90
2022-08-06T10:11:50.082Z,3.62
2022-08-06T10:14:33.597Z,3.92
2022-08-06T10:17:15.614Z,3.85
2022-08-06T10:19:52.855Z,4.53
2022-08-06T10:22:27.179Z,4.10
2022-08-06T10:25:12.775Z,4.30
2022-08-06T10:27:39.868Z,3.92
2022-08-06T10:33:00.198Z,3.95
2022-08-06T10:35:34.459Z,3.75
2022-08-06T10:38:14.738Z,3.70
2022-08-06T10:40:57.334Z,3.95
2022-08-06T10:43:22.193Z,3.60
2022-08-06T10:45:57.229Z,3.80
2022-08-06T10:49:01.199Z,4.25
2022-08-06T10:51:07.400Z,4.50
2022-08-06T10:54:01.028Z,4.42
2022-08-06T10:56:25.742Z,3.90
2022-08-06T10:58:56.602Z,4.03
2022-08-06T11:01:51.314Z,4.15
2022-08-06T11:04:45.355Z,4.47
2022-08-06T11:08:09.567Z,4.70
2022-08-06T11:10:56.632Z,3.77
2022-08-06T11:13:58.538Z,3.67
2022-08-06T11:16:34.262Z,4.10
2022-08-06T11:19:11.346Z,5.40
2022-08-06T11:22:02.741Z,6.60
2022-08-06T11:24:25.788Z,8.23
2022-08-06T11:27:01.758Z,5.37
2022-08-06T11:29:55.314Z,4.62
2022-08-06T11:32:20.265Z,4.03
2022-08-06T11:34:51.475Z,5.87
2022-08-06T11:38:00.557Z,4.80
2022-08-06T11:40:20.873Z,5.22
2022-08-06T11:42:55.080Z,4.17
2022-08-06T11:46:21.033Z,4.10
2022-08-06T11:48:12.963Z,3.80
2022-08-06T11:50:44.119Z,3.22
2022-08-06T11:53:22.027Z,2.47
2022-08-06T11:56:10.098Z,3.15
2022-08-06T11:58:43.146Z,3.00
2022-08-06T12:01:34.303Z,2.80
2022-08-06T12:03:52.490Z,2.80
2022-08-06T12:06:28.771Z,2.60
2022-08-06T12:09:23.294Z,2.90
2022-08-06T12:11:51.099Z,2.42
2022-08-06T12:14:49.104Z,5.57
2022-08-06T12:17:24.617Z,6.12
2022-08-06T12:20:01.261Z,3.83
2022-08-06T12:22:33.495Z,3.05
2022-08-06T12:25:09.982Z,2.98
2022-08-06T12:27:50.829Z,2.65
2022-08-06T12:30:37.101Z,3.92
2022-08-06T12:33:04.096Z,3.75
2022-08-06T12:35:41.339Z,2.60
2022-08-06T12:38:15.172Z,2.33
2022-08-06T12:41:09.471Z,2.90
2022-08-06T12:43:56.885Z,1.90
2022-08-06T12:46:24.465Z,3.25
2022-08-06T12:49:01.407Z,2.30
2022-08-06T12:51:34.081Z,2.67
2022-08-06T12:54:09.176Z,2.22
2022-08-06T12:56:43.258Z,3.50
2022-08-06T12:59:23.740Z,2.52
2022-08-06T13:02:11.341Z,2.50
2022-08-06T13:04:31.285Z,2.27
2022-08-06T13:07:09.142Z,2.65
2022-08-06T13:09:56.164Z,2.27
2022-08-06T13:12:45.078Z,4.75
2022-08-06T13:15:10.241Z,3.47
2022-08-06T13:17:55.257Z,4.95
2022-08-06T13:20:09.582Z,6.22
2022-08-06T13:22:54.596Z,5.20
2022-08-06T13:25:48.346Z,6.85
2022-08-06T13:28:22.495Z,8.10
2022-08-06T13:30:57.657Z,6.62
2022-08-06T13:33:27.400Z,8.38
2022-08-06T13:36:13.061Z,16.57
2022-08-06T13:38:46.303Z,21.30
2022-08-06T13:41:32.546Z,13.85
2022-08-06T13:44:08.661Z,9.45
2022-08-06T13:46:51.429Z,7.12
2022-08-06T13:49:19.814Z,4.55
2022-08-06T13:51:54.057Z,3.35
2022-08-06T13:54:32.737Z,2.85
2022-08-06T13:57:07.684Z,2.40
2022-08-06T13:59:43.257Z,2.70
2022-08-06T14:02:17.420Z,2.40
2022-08-06T14:04:51.036Z,2.70
2022-08-06T14:10:09.012Z,2.12
2022-08-06T14:12:32.783Z,2.50
2022-08-06T14:15:06.274Z,2.80
2022-08-06T14:17:42.472Z,2.10
2022-08-06T14:20:19.011Z,2.77
2022-08-06T14:22:49.302Z,2.30
2022-08-06T14:25:23.288Z,2.12
2022-08-06T14:27:58.322Z,2.10
2022-08-06T14:30:32.979Z,2.20
2022-08-06T14:33:18.875Z,2.75
2022-08-06T14:35:50.490Z,3.52
2022-08-06T14:38:17.747Z,3.05
2022-08-06T14:41:10.040Z,2.35
2022-08-06T14:44:00.521Z,2.20
2022-08-06T14:46:33.617Z,2.87
2022-08-06T14:49:13.019Z,2.62
2022-08-06T14:52:20.217Z,2.20
2022-08-06T14:54:16.952Z,3.30
2022-08-06T14:56:52.425Z,3.00
2022-08-06T14:59:32.381Z,2.70
2022-08-06T15:02:01.616Z,2.33
2022-08-06T15:04:34.535Z,2.40
2022-08-06T15:07:08.632Z,2.33
2022-08-06T15:10:05.488Z,2.08
2022-08-06T15:12:29.651Z,2.30
2022-08-06T15:14:53.084Z,2.15
2022-08-06T15:17:30.292Z,2.10
2022-08-06T15:20:00.533Z,2.20
2022-08-06T15:22:36.183Z,2.00
2022-08-06T15:25:21.572Z,2.20
2022-08-06T15:27:48.452Z,2.05
2022-08-06T15:30:22.930Z,9.33
2022-08-06T15:32:57.806Z,3.83
2022-08-06T15:35:38.349Z,2.00
2022-08-06T15:38:08.121Z,1.92
2022-08-06T15:40:42.814Z,2.50
2022-08-06T15:43:15.929Z,2.30
2022-08-06T15:45:52.383Z,2.47
2022-08-06T15:48:28.184Z,2.80
2022-08-06T15:51:28.174Z,2.52
2022-08-06T15:53:36.946Z,2.72
2022-08-06T15:56:10.044Z,2.40
2022-08-06T15:58:43.536Z,4.37
2022-08-06T16:01:17.106Z,2.65
2022-08-06T16:03:57.809Z,2.22
2022-08-06T16:06:28.640Z,3.00
2022-08-06T16:09:01.075Z,2.47
2022-08-06T16:11:48.464Z,2.37
2022-08-06T16:14:11.994Z,2.20
2022-08-06T16:16:45.002Z,1.95
2022-08-06T16:19:20.898Z,2.20
2022-08-06T16:21:53.979Z,4.95
2022-08-06T16:24:26.719Z,2.80
2022-08-06T16:27:01.233Z,2.08
2022-08-06T16:29:35.918Z,2.12
2022-08-06T16:32:09.112Z,2.60
2022-08-06T16:34:44.005Z,2.10
2022-08-06T16:37:28.695Z,2.30
2022-08-06T16:39:57.275Z,3.17
2022-08-06T16:42:29.807Z,2.62
2022-08-06T16:45:11.396Z,2.10
2022-08-06T16:48:21.619Z,1.60
2022-08-06T16:50:24.895Z,2.00
2022-08-06T16:55:24.186Z,1.82
2022-08-06T16:58:01.230Z,1.90
2022-08-06T17:03:07.922Z,1.60
2022-08-06T17:05:46.129Z,1.72
2022-08-06T17:08:17.110Z,1.92
2022-08-06T17:10:59.890Z,1.70
2022-08-06T17:16:00.344Z,1.80
2022-08-06T17:18:34.865Z,1.60
2022-08-06T17:21:08.336Z,2.13
2022-08-06T17:23:41.364Z,2.25
2022-08-06T17:26:35.143Z,1.90
2022-08-06T17:28:50.551Z,1.90
2022-08-06T17:31:58.075Z,1.77
2022-08-06T17:33:57.760Z,5.92
2022-08-06T17:36:38.277Z,2.25
2022-08-06T17:41:46.513Z,2.62
2022-08-06T17:42:30.135Z,2.08
2022-08-06T17:44:18.735Z,2.80
2022-08-06T17:46:51.718Z,3.40
2022-08-06T17:49:25.624Z,3.50
2022-08-06T17:52:00.085Z,3.33
2022-08-06T17:54:45.335Z,2.92
2022-08-06T17:57:07.842Z,2.98
2022-08-06T17:59:44.880Z,2.40
2022-08-06T18:02:17.115Z,2.47
2022-08-06T18:04:53.489Z,2.52
2022-08-06T18:08:11.835Z,2.42
2022-08-06T18:10:19.858Z,2.15
2022-08-06T18:12:53.976Z,2.45
2022-08-06T18:15:40.287Z,2.37
2022-08-06T18:18:09.701Z,1.87
2022-08-06T18:20:38.750Z,2.00
2022-08-06T18:23:20.742Z,2.02
2022-08-06T18:25:56.983Z,2.10
2022-08-06T18:28:31.752Z,1.82
2022-08-06T18:30:56.217Z,2.15
2022-08-06T18:33:31.283Z,1.60
2022-08-06T18:36:06.725Z,2.25
2022-08-06T18:38:39.758Z,2.42
2022-08-06T18:41:15.815Z,2.30
2022-08-06T18:43:58.042Z,2.58
2022-08-06T18:46:56.739Z,2.42
2022-08-06T18:48:58.745Z,2.60
2022-08-06T18:51:34.165Z,3.08
2022-08-06T18:54:11.223Z,2.72
2022-08-06T18:56:46.098Z,2.90
2022-08-06T18:59:26.069Z,2.55
2022-08-06T19:01:54.386Z,2.92
2022-08-06T19:04:29.157Z,3.00
2022-08-06T19:07:08.720Z,3.60
2022-08-06T19:09:41.883Z,4.92
2022-08-06T19:12:20.713Z,6.80
2022-08-06T19:14:51.746Z,4.67
2022-08-06T19:18:09.744Z,5.67
2022-08-06T19:20:20.334Z,3.90
2022-08-06T19:22:35.185Z,4.20
2022-08-06T19:25:11.114Z,4.47
2022-08-06T19:28:30.408Z,3.77
2022-08-06T19:30:27.560Z,3.60
2022-08-06T19:32:53.514Z,4.05
2022-08-06T19:36:04.410Z,4.30
2022-08-06T19:38:05.856Z,4.00
2022-08-06T19:40:53.041Z,3.47
2022-08-06T19:44:27.766Z,3.95
2022-08-06T19:46:25.560Z,4.25
2022-08-06T19:48:38.570Z,4.20
2022-08-06T19:52:01.458Z,4.05
2022-08-06T19:53:54.193Z,4.10
2022-08-06T19:56:20.610Z,3.77
2022-08-06T20:00:53.367Z,3.70
2022-08-06T20:01:35.986Z,3.58
2022-08-06T20:04:02.477Z,3.77
2022-08-06T20:07:01.291Z,3.90
2022-08-06T20:09:29.682Z,4.22
2022-08-06T20:12:03.972Z,3.85
2022-08-06T20:14:22.030Z,3.60
2022-08-06T20:16:56.398Z,4.00
2022-08-06T20:20:05.820Z,3.70
2022-08-06T20:22:04.073Z,4.30
2022-08-06T20:27:11.528Z,3.27
2022-08-06T20:30:04.818Z,3.50
2022-08-06T20:32:20.679Z,4.25
2022-08-06T20:34:55.707Z,3.87
2022-08-06T20:37:43.942Z,3.95
2022-08-06T20:40:06.201Z,3.95
2022-08-06T20:42:42.300Z,4.40
2022-08-06T20:45:23.768Z,3.87
2022-08-06T20:47:51.756Z,4.08
2022-08-06T20:50:28.138Z,5.60
2022-08-06T20:53:02.136Z,5.42
2022-08-06T20:55:41.731Z,4.78
2022-08-06T20:58:12.690Z,6.08
2022-08-06T21:00:46.000Z,5.85
2022-08-06T21:05:11.478Z,5.73
2022-08-06T21:05:54.297Z,4.05
2022-08-06T21:08:29.975Z,4.12
2022-08-06T21:11:02.011Z,4.17
2022-08-06T21:13:35.745Z,3.87
2022-08-06T21:16:14.870Z,4.40
2022-08-06T21:18:47.866Z,4.37
2022-08-06T21:21:21.982Z,4.75
2022-08-06T21:23:57.269Z,5.03
2022-08-06T21:26:35.312Z,5.25
2022-08-06T21:29:14.366Z,5.28
2022-08-06T21:31:47.146Z,5.50
2022-08-06T21:34:17.684Z,5.42
2022-08-06T21:36:52.468Z,5.45
2022-08-06T21:39:52.690Z,5.65
2022-08-06T21:42:08.068Z,5.28
2022-08-06T21:44:38.163Z,5.08
2022-08-06T21:47:13.076Z,5.03
2022-08-06T21:50:00.654Z,4.70
2022-08-06T21:52:28.243Z,4.65
2022-08-06T21:54:58.371Z,5.35
2022-08-06T21:57:45.505Z,4.65
2022-08-06T22:00:12.791Z,5.12
2022-08-06T22:02:44.886Z,4.60
2022-08-06T22:06:16.753Z,4.67
2022-08-06T22:08:07.129Z,4.35
2022-08-06T22:10:32.632Z,4.53
2022-08-06T22:13:12.502Z,3.87
2022-08-06T22:15:45.965Z,5.37
2022-08-06T22:18:16.976Z,5.05
2022-08-06T22:20:49.091Z,4.80
2022-08-06T22:23:22.566Z,4.85
2022-08-06T22:25:57.312Z,4.58
2022-08-06T22:28:34.198Z,4.12
2022-08-06T22:31:08.099Z,4.62
2022-08-06T22:33:45.832Z,4.42
2022-08-06T22:36:14.628Z,4.47
2022-08-06T22:38:47.457Z,4.70
2022-08-06T22:41:20.767Z,4.90
2022-08-06T22:43:57.177Z,4.20
2022-08-06T22:46:29.576Z,3.67
2022-08-06T22:49:02.282Z,4.20
2022-08-06T22:51:50.661Z,4.12
2022-08-06T22:54:28.171Z,4.15
2022-08-06T22:57:05.247Z,4.05
2022-08-06T22:59:32.149Z,3.98
2022-08-06T23:02:06.785Z,4.35
2022-08-06T23:04:31.297Z,4.00
2022-08-06T23:07:09.831Z,4.35
2022-08-06T23:09:41.583Z,4.33
2022-08-06T23:12:16.687Z,4.15
2022-08-06T23:14:50.537Z,4.10
2022-08-06T23:17:24.300Z,4.08
2022-08-06T23:19:58.302Z,4.08
2022-08-06T23:22:31.058Z,3.70
2022-08-06T23:25:59.185Z,3.40
2022-08-06T23:27:46.945Z,3.80
2022-08-06T23:30:19.759Z,4.60
2022-08-06T23:32:49.761Z,4.45
2022-08-06T23:35:36.878Z,5.10
2022-08-06T23:38:05.545Z,4.20
2022-08-06T23:40:32.593Z,3.92
2022-08-06T23:43:07.494Z,3.98
2022-08-06T23:45:40.591Z,4.30
2022-08-06T23:48:13.785Z,3.62
2022-08-06T23:50:52.683Z,3.80
2022-08-06T23:54:06.421Z,4.08
2022-08-06T23:56:01.630Z,4.33
2022-08-06T23:58:34.475Z,3.45
